createdAt,value
2022-09-15T00:01:27.947Z,13.65
2022-09-15T00:03:56.000Z,13.65
2022-09-15T00:06:24.168Z,13.66
2022-09-15T00:08:52.135Z,13.67
2022-09-15T00:11:24.203Z,13.68
2022-09-15T00:13:53.598Z,13.69
2022-09-15T00:16:24.569Z,13.69
2022-09-15T00:18:53.063Z,13.70
2022-09-15T00:21:24.790Z,13.71
2022-09-15T00:23:52.912Z,13.73
2022-09-15T00:26:29.105Z,13.74
2022-09-15T00:28:58.713Z,13.74
2022-09-15T00:31:29.001Z,13.75
2022-09-15T00:33:58.846Z,13.76
2022-09-15T00:36:27.230Z,13.77
2022-09-15T00:38:55.570Z,13.78
2022-09-15T00:41:24.637Z,13.79
2022-09-15T00:43:55.743Z,13.79
2022-09-15T00:46:40.809Z,13.79
2022-09-15T00:49:20.758Z,13.80
2022-09-15T00:52:03.645Z,13.80
2022-09-15T00:54:37.786Z,13.81
2022-09-15T00:57:12.409Z,13.81
2022-09-15T00:59:43.086Z,13.80
2022-09-15T01:02:16.540Z,13.80
2022-09-15T01:04:44.846Z,13.79
2022-09-15T01:07:17.292Z,13.77
2022-09-15T01:09:56.231Z,13.77
2022-09-15T01:12:26.026Z,13.76
2022-09-15T01:14:54.097Z,13.76
2022-09-15T01:17:43.099Z,13.75
2022-09-15T01:20:26.277Z,13.73
2022-09-15T01:23:21.998Z,13.73
2022-09-15T01:26:28.895Z,13.71
2022-09-15T01:29:21.805Z,13.71
2022-09-15T01:32:22.057Z,13.71
2022-09-15T01:34:58.198Z,13.71
2022-09-15T01:37:32.839Z,13.70
2022-09-15T01:40:03.544Z,13.70
2022-09-15T01:42:33.669Z,13.68
2022-09-15T01:45:08.921Z,13.68
2022-09-15T01:47:37.669Z,13.67
2022-09-15T01:50:08.759Z,13.66
2022-09-15T01:52:41.265Z,13.64
2022-09-15T01:55:20.569Z,13.63
2022-09-15T01:57:49.326Z,13.62
2022-09-15T02:00:17.526Z,13.61
2022-09-15T02:02:59.935Z,13.60
2022-09-15T02:05:36.194Z,13.60
2022-09-15T02:08:16.114Z,13.58
2022-09-15T02:10:51.690Z,13.57
2022-09-15T02:13:28.160Z,13.57
2022-09-15T02:16:00.401Z,13.57
2022-09-15T02:18:45.467Z,13.57
2022-09-15T02:21:23.599Z,13.54
2022-09-15T02:23:57.522Z,13.54
2022-09-15T02:26:28.551Z,13.54
2022-09-15T02:29:00.520Z,13.53
2022-09-15T02:31:31.584Z,13.52
2022-09-15T02:34:06.995Z,13.52
2022-09-15T02:36:35.145Z,13.51
2022-09-15T02:39:09.423Z,13.50
2022-09-15T02:41:39.207Z,13.49
2022-09-15T02:44:09.205Z,13.47
2022-09-15T02:46:37.484Z,13.46
2022-09-15T02:49:05.863Z,13.44
2022-09-15T02:51:34.244Z,13.41
2022-09-15T02:54:02.723Z,13.39
2022-09-15T02:56:30.688Z,13.38
2022-09-15T02:58:58.759Z,13.37
2022-09-15T03:01:34.793Z,13.36
2022-09-15T03:04:04.346Z,13.35
2022-09-15T03:06:35.362Z,13.34
2022-09-15T03:09:08.144Z,13.31
2022-09-15T03:11:37.239Z,13.30
2022-09-15T03:14:06.910Z,13.31
2022-09-15T03:16:35.936Z,13.32
2022-09-15T03:19:04.944Z,13.31
2022-09-15T03:21:33.211Z,13.31
2022-09-15T03:24:01.285Z,13.30
2022-09-15T03:26:29.464Z,13.30
2022-09-15T03:28:57.523Z,13.31
2022-09-15T03:31:25.750Z,13.30
2022-09-15T03:33:56.202Z,13.29
2022-09-15T03:36:24.313Z,13.29
2022-09-15T03:38:53.017Z,13.29
2022-09-15T03:41:21.259Z,13.30
2022-09-15T03:43:49.529Z,13.31
2022-09-15T03:46:18.263Z,13.31
2022-09-15T03:48:47.693Z,13.31
2022-09-15T03:51:15.787Z,13.31
2022-09-15T03:53:43.960Z,13.32
2022-09-15T03:56:19.231Z,13.32
2022-09-15T03:58:47.240Z,13.31
2022-09-15T04:01:15.392Z,13.32
2022-09-15T04:03:47.583Z,13.32
2022-09-15T04:06:20.288Z,13.31
2022-09-15T04:08:49.902Z,13.31
2022-09-15T04:11:19.296Z,13.30
2022-09-15T04:13:48.391Z,13.30
2022-09-15T04:16:19.632Z,13.30
2022-09-15T04:18:47.705Z,13.29
2022-09-15T04:21:19.089Z,13.27
2022-09-15T04:23:47.749Z,13.27
2022-09-15T04:26:34.139Z,13.27
2022-09-15T04:29:04.952Z,13.26
2022-09-15T04:31:34.135Z,13.25
2022-09-15T04:34:02.452Z,13.26
2022-09-15T04:36:31.986Z,13.26
2022-09-15T04:39:00.374Z,13.26
2022-09-15T04:41:28.912Z,13.30
2022-09-15T04:43:57.171Z,13.31
2022-09-15T04:46:26.139Z,13.33
2022-09-15T04:48:54.556Z,13.36
2022-09-15T04:51:24.042Z,13.37
2022-09-15T04:53:52.295Z,13.45
2022-09-15T04:56:23.394Z,13.82
2022-09-15T04:59:02.413Z,14.45
2022-09-15T05:01:35.393Z,15.16
2022-09-15T05:04:04.307Z,15.87
2022-09-15T05:06:33.533Z,16.42
2022-09-15T05:09:09.061Z,16.84
2022-09-15T05:11:38.797Z,17.01
2022-09-15T05:14:07.212Z,17.03
2022-09-15T05:16:35.607Z,16.99
2022-09-15T05:19:04.825Z,16.93
2022-09-15T05:21:33.163Z,16.81
2022-09-15T05:24:01.518Z,16.66
2022-09-15T05:26:30.373Z,16.52
2022-09-15T05:28:58.399Z,16.35
2022-09-15T05:31:31.187Z,16.20
2022-09-15T05:34:04.834Z,16.01
2022-09-15T05:36:33.177Z,15.84
2022-09-15T05:39:02.019Z,15.68
2022-09-15T05:41:30.811Z,15.54
2022-09-15T05:43:59.359Z,15.45
2022-09-15T05:46:29.341Z,15.36
2022-09-15T05:48:58.841Z,15.25
2022-09-15T05:51:27.760Z,15.17
2022-09-15T05:53:56.105Z,15.09
2022-09-15T05:56:24.578Z,15.01
2022-09-15T05:58:52.689Z,14.95
2022-09-15T06:01:23.712Z,14.90
2022-09-15T06:03:53.027Z,14.85
2022-09-15T06:06:22.298Z,14.79
2022-09-15T06:08:58.137Z,14.74
2022-09-15T06:11:29.803Z,14.73
2022-09-15T06:14:03.362Z,14.73
2022-09-15T06:16:34.335Z,14.72
2022-09-15T06:19:03.495Z,14.69
2022-09-15T06:21:33.009Z,14.65
2022-09-15T06:24:07.434Z,14.61
2022-09-15T06:26:35.637Z,14.59
2022-09-15T06:29:05.353Z,14.55
2022-09-15T06:31:35.784Z,14.52
2022-09-15T06:36:50.849Z,14.53
2022-09-15T06:39:19.356Z,14.55
2022-09-15T06:42:01.836Z,14.59
2022-09-15T06:44:30.734Z,14.61
2022-09-15T06:46:58.902Z,14.62
2022-09-15T06:49:27.546Z,14.63
2022-09-15T06:51:56.544Z,14.66
2022-09-15T06:54:24.855Z,14.71
2022-09-15T06:56:53.163Z,14.75
2022-09-15T06:59:24.067Z,14.81
2022-09-15T07:02:02.638Z,14.87
2022-09-15T07:04:37.207Z,14.94
2022-09-15T07:07:05.384Z,15.03
2022-09-15T07:09:33.454Z,15.12
2022-09-15T07:12:01.740Z,15.22
2022-09-15T07:14:30.926Z,15.29
2022-09-15T07:16:58.997Z,15.34
2022-09-15T07:19:27.285Z,15.39
2022-09-15T07:21:55.338Z,15.41
2022-09-15T07:24:23.310Z,15.44
2022-09-15T07:26:52.295Z,15.47
2022-09-15T07:29:20.584Z,15.51
2022-09-15T07:31:49.008Z,15.57
2022-09-15T07:34:17.759Z,15.60
2022-09-15T07:36:45.814Z,15.65
2022-09-15T07:39:14.186Z,15.67
2022-09-15T07:41:42.259Z,15.71
2022-09-15T07:44:13.246Z,15.74
2022-09-15T07:46:41.267Z,15.79
2022-09-15T07:49:10.871Z,15.85
2022-09-15T07:51:38.941Z,15.89
2022-09-15T07:54:07.523Z,15.91
2022-09-15T07:56:35.696Z,15.92
2022-09-15T07:59:03.876Z,15.95
2022-09-15T08:01:31.831Z,15.99
2022-09-15T08:03:59.909Z,16.03
2022-09-15T08:06:28.389Z,16.05
2022-09-15T08:09:00.468Z,16.09
2022-09-15T08:11:30.094Z,16.22
2022-09-15T08:14:01.477Z,16.36
2022-09-15T08:16:29.973Z,16.50
2022-09-15T08:18:58.913Z,16.64
2022-09-15T08:21:28.077Z,16.76
2022-09-15T08:23:58.807Z,16.89
2022-09-15T08:26:28.943Z,17.01
2022-09-15T08:28:58.193Z,17.12
2022-09-15T08:31:26.611Z,17.23
2022-09-15T08:33:56.128Z,17.34
2022-09-15T08:36:28.153Z,17.45
2022-09-15T08:38:56.994Z,17.56
2022-09-15T08:41:33.980Z,17.63
2022-09-15T08:44:34.166Z,17.66
2022-09-15T08:47:05.665Z,17.70
2022-09-15T08:49:51.669Z,17.72
2022-09-15T08:52:27.131Z,17.73
2022-09-15T08:54:59.009Z,17.72
2022-09-15T08:57:27.598Z,17.68
2022-09-15T08:59:56.283Z,17.66
2022-09-15T09:02:50.738Z,17.68
2022-09-15T09:05:37.474Z,17.69
2022-09-15T09:08:26.449Z,17.68
2022-09-15T09:11:03.413Z,17.69
2022-09-15T09:13:53.178Z,17.73
2022-09-15T09:17:00.480Z,17.75
2022-09-15T09:19:40.025Z,17.76
2022-09-15T09:22:23.264Z,17.76
2022-09-15T09:24:55.725Z,17.80
2022-09-15T09:27:28.992Z,17.86
2022-09-15T09:30:23.317Z,17.90
2022-09-15T09:33:05.318Z,17.90
2022-09-15T09:35:49.854Z,17.87
2022-09-15T09:38:32.776Z,17.83
2022-09-15T09:41:02.670Z,17.81
2022-09-15T09:43:32.503Z,17.81
2022-09-15T09:46:01.013Z,17.85
2022-09-15T09:48:30.516Z,17.91
2022-09-15T09:50:58.658Z,17.95
2022-09-15T09:53:32.324Z,18.01
2022-09-15T09:56:24.768Z,18.08
2022-09-15T09:58:54.856Z,18.15
2022-09-15T10:01:26.336Z,18.24
2022-09-15T10:04:21.433Z,18.30
2022-09-15T10:06:50.157Z,18.43
2022-09-15T10:09:19.602Z,18.52
2022-09-15T10:11:55.009Z,18.61
2022-09-15T10:14:30.962Z,18.69
2022-09-15T10:17:13.987Z,18.76
2022-09-15T10:19:47.165Z,18.83
2022-09-15T10:22:27.627Z,18.86
2022-09-15T10:24:55.903Z,18.91
2022-09-15T10:27:28.994Z,18.95
2022-09-15T10:30:16.009Z,18.99
2022-09-15T10:32:44.895Z,19.02
2022-09-15T10:35:20.860Z,19.04
2022-09-15T10:38:03.839Z,19.05
2022-09-15T10:40:37.557Z,19.10
2022-09-15T10:43:24.505Z,19.13
2022-09-15T10:46:04.407Z,19.13
2022-09-15T10:49:03.532Z,19.10
2022-09-15T10:51:31.424Z,19.08
2022-09-15T10:54:16.984Z,19.07
2022-09-15T10:56:50.065Z,19.07
2022-09-15T10:59:25.156Z,19.09
2022-09-15T11:02:10.976Z,19.12
2022-09-15T11:05:11.824Z,19.16
2022-09-15T11:07:54.371Z,19.13
2022-09-15T11:10:28.645Z,19.09
2022-09-15T11:12:57.176Z,19.05
2022-09-15T11:15:37.500Z,19.01
2022-09-15T11:18:26.956Z,19.00
2022-09-15T11:21:27.293Z,19.00
2022-09-15T11:24:13.486Z,18.96
2022-09-15T11:26:45.770Z,18.92
2022-09-15T11:29:26.342Z,18.90
2022-09-15T11:32:26.136Z,18.89
2022-09-15T11:35:00.882Z,18.89
2022-09-15T11:37:45.513Z,18.90
2022-09-15T11:40:20.242Z,18.91
2022-09-15T11:43:03.168Z,18.92
2022-09-15T11:45:38.607Z,18.95
2022-09-15T11:48:28.687Z,18.96
2022-09-15T11:51:00.221Z,18.92
2022-09-15T11:53:35.647Z,18.89
2022-09-15T11:56:28.949Z,18.85
2022-09-15T11:59:27.738Z,18.79
2022-09-15T12:02:23.657Z,18.75
2022-09-15T12:05:09.780Z,18.79
2022-09-15T12:07:51.444Z,18.81
2022-09-15T12:10:25.966Z,18.82
2022-09-15T12:12:54.612Z,18.89
2022-09-15T12:15:27.504Z,18.96
2022-09-15T12:18:21.358Z,18.99
2022-09-15T12:21:11.613Z,19.03
2022-09-15T12:23:51.273Z,19.00
2022-09-15T12:26:21.989Z,18.93
2022-09-15T12:28:59.262Z,18.88
2022-09-15T12:31:30.042Z,18.84
2022-09-15T12:33:59.679Z,18.79
2022-09-15T12:36:44.772Z,18.76
2022-09-15T12:39:23.360Z,18.73
2022-09-15T12:42:00.452Z,18.68
2022-09-15T12:44:36.380Z,18.65
2022-09-15T12:47:08.110Z,18.60
2022-09-15T12:49:43.732Z,18.51
2022-09-15T12:52:12.828Z,18.40
2022-09-15T12:54:45.422Z,18.29
2022-09-15T12:57:36.714Z,18.22
2022-09-15T13:00:31.251Z,18.17
2022-09-15T13:03:00.584Z,18.14
2022-09-15T13:05:53.123Z,18.11
2022-09-15T13:08:24.912Z,18.10
2022-09-15T13:11:11.601Z,18.07
2022-09-15T13:14:10.748Z,18.03
2022-09-15T13:16:41.655Z,17.97
2022-09-15T13:19:30.537Z,17.90
2022-09-15T13:22:01.810Z,17.85
2022-09-15T13:24:32.649Z,17.80
2022-09-15T13:27:02.704Z,17.75
2022-09-15T13:29:33.105Z,17.73
2022-09-15T13:32:23.735Z,17.74
2022-09-15T13:35:18.126Z,17.75
2022-09-15T13:38:22.998Z,17.76
2022-09-15T13:41:03.478Z,17.75
2022-09-15T13:43:58.995Z,17.76
2022-09-15T13:46:45.178Z,17.75
2022-09-15T13:49:42.336Z,17.70
2022-09-15T13:52:22.548Z,17.65
2022-09-15T13:55:35.449Z,17.60
2022-09-15T14:01:06.799Z,17.54
2022-09-15T14:04:09.124Z,17.56
2022-09-15T14:06:40.629Z,17.55
2022-09-15T14:09:28.402Z,17.53
2022-09-15T14:12:02.260Z,17.50
2022-09-15T14:14:41.204Z,17.49
2022-09-15T14:17:27.382Z,17.49
2022-09-15T14:19:58.434Z,17.47
2022-09-15T14:22:31.748Z,17.42
2022-09-15T14:25:05.355Z,17.40
2022-09-15T14:27:35.658Z,17.34
2022-09-15T14:30:07.748Z,17.33
2022-09-15T14:32:40.009Z,17.31
2022-09-15T14:35:16.014Z,17.30
2022-09-15T14:37:55.443Z,17.29
2022-09-15T14:40:29.389Z,17.29
2022-09-15T14:42:58.480Z,17.26
2022-09-15T14:48:30.810Z,17.23
2022-09-15T14:51:05.103Z,17.21
2022-09-15T14:53:37.789Z,17.19
2022-09-15T14:56:12.334Z,17.15
2022-09-15T14:59:05.054Z,17.14
2022-09-15T15:01:40.218Z,17.09
2022-09-15T15:04:17.366Z,17.01
2022-09-15T15:07:09.646Z,16.95
2022-09-15T15:09:47.028Z,16.90
2022-09-15T15:12:23.818Z,16.84
2022-09-15T15:14:56.372Z,16.79
2022-09-15T15:17:25.143Z,16.73
2022-09-15T15:20:16.181Z,16.69
2022-09-15T15:22:45.817Z,16.66
2022-09-15T15:25:22.331Z,16.65
2022-09-15T15:27:56.049Z,16.65
2022-09-15T15:30:30.704Z,16.66
2022-09-15T15:33:05.128Z,16.66
2022-09-15T15:35:35.869Z,16.66
2022-09-15T15:38:09.921Z,16.65
2022-09-15T15:40:40.831Z,16.63
2022-09-15T15:43:26.539Z,16.61
2022-09-15T15:46:01.411Z,16.57
2022-09-15T15:48:38.239Z,16.52
2022-09-15T15:51:07.779Z,16.46
2022-09-15T15:53:35.910Z,16.40
2022-09-15T15:56:03.953Z,16.35
2022-09-15T15:58:31.918Z,16.30
2022-09-15T16:01:00.577Z,16.25
2022-09-15T16:03:28.803Z,16.20
2022-09-15T16:06:00.457Z,16.15
2022-09-15T16:08:32.120Z,16.11
2022-09-15T16:11:02.554Z,16.07
2022-09-15T16:13:31.429Z,16.04
2022-09-15T16:16:01.352Z,15.99
2022-09-15T16:18:29.784Z,15.93
2022-09-15T16:20:57.992Z,15.89
2022-09-15T16:23:26.030Z,15.84
2022-09-15T16:26:04.521Z,15.80
2022-09-15T16:28:32.650Z,15.74
2022-09-15T16:31:00.664Z,15.70
2022-09-15T16:33:28.735Z,15.66
2022-09-15T16:36:06.607Z,15.61
2022-09-15T16:38:36.277Z,15.56
2022-09-15T16:41:11.023Z,15.50
2022-09-15T16:43:39.007Z,15.45
2022-09-15T16:46:11.536Z,15.40
2022-09-15T16:48:41.482Z,15.35
2022-09-15T16:51:31.630Z,15.29
2022-09-15T16:54:00.253Z,15.23
2022-09-15T16:56:28.636Z,15.16
2022-09-15T16:59:00.102Z,15.08
2022-09-15T17:01:29.078Z,15.02
2022-09-15T17:03:57.759Z,14.96
2022-09-15T17:06:25.802Z,14.91
2022-09-15T17:08:54.432Z,14.84
2022-09-15T17:11:25.352Z,14.78
2022-09-15T17:13:53.711Z,14.73
2022-09-15T17:16:22.175Z,14.68
2022-09-15T17:18:50.381Z,14.64
2022-09-15T17:21:20.109Z,14.59
2022-09-15T17:23:49.887Z,14.51
2022-09-15T17:26:21.463Z,14.44
2022-09-15T17:28:51.167Z,14.39
2022-09-15T17:31:22.157Z,14.34
2022-09-15T17:33:51.010Z,14.27
2022-09-15T17:36:19.164Z,14.23
2022-09-15T17:38:49.118Z,14.17
2022-09-15T17:41:20.019Z,14.12
2022-09-15T17:43:49.508Z,14.08
2022-09-15T17:46:17.509Z,14.03
2022-09-15T17:48:45.662Z,13.99
2022-09-15T17:51:19.820Z,13.94
2022-09-15T17:53:48.031Z,13.89
2022-09-15T17:56:16.425Z,13.84
2022-09-15T17:58:45.496Z,13.79
2022-09-15T18:01:14.916Z,13.76
2022-09-15T18:03:45.216Z,13.74
2022-09-15T18:06:14.138Z,13.73
2022-09-15T18:08:42.204Z,13.71
2022-09-15T18:11:13.350Z,13.68
2022-09-15T18:13:41.993Z,13.66
2022-09-15T18:16:14.606Z,13.63
2022-09-15T18:18:43.200Z,13.60
2022-09-15T18:21:29.385Z,13.56
2022-09-15T18:23:57.459Z,13.52
2022-09-15T18:26:26.798Z,13.50
2022-09-15T18:28:56.331Z,13.48
2022-09-15T18:31:24.992Z,13.45
2022-09-15T18:33:53.444Z,13.40
2022-09-15T18:36:21.827Z,13.36
2022-09-15T18:38:53.290Z,13.31
2022-09-15T18:41:21.529Z,13.26
2022-09-15T18:43:49.824Z,13.20
2022-09-15T18:46:18.633Z,13.13
2022-09-15T18:48:47.073Z,13.06
2022-09-15T18:51:23.871Z,13.00
2022-09-15T18:53:57.677Z,12.92
2022-09-15T18:56:25.731Z,12.85
2022-09-15T18:58:55.124Z,12.78
2022-09-15T19:01:24.400Z,12.72
2022-09-15T19:03:52.389Z,12.66
2022-09-15T19:06:20.667Z,12.59
2022-09-15T19:08:49.066Z,12.52
2022-09-15T19:11:17.878Z,12.45
2022-09-15T19:13:46.420Z,12.39
2022-09-15T19:16:14.516Z,12.32
2022-09-15T19:18:45.128Z,12.26
2022-09-15T19:21:13.290Z,12.20
2022-09-15T19:23:41.259Z,12.14
2022-09-15T19:26:14.039Z,12.08
2022-09-15T19:28:44.520Z,12.02
2022-09-15T19:31:13.872Z,11.95
2022-09-15T19:33:42.755Z,11.89
2022-09-15T19:36:27.540Z,11.83
2022-09-15T19:39:00.328Z,11.77
2022-09-15T19:41:28.945Z,11.73
2022-09-15T19:43:57.773Z,11.70
2022-09-15T19:46:26.082Z,11.67
2022-09-15T19:48:55.575Z,11.65
2022-09-15T19:51:24.237Z,11.62
2022-09-15T19:53:56.520Z,11.61
2022-09-15T19:56:26.459Z,11.58
2022-09-15T19:58:56.585Z,11.57
2022-09-15T20:01:28.013Z,11.54
2022-09-15T20:06:42.356Z,11.49
2022-09-15T20:09:10.692Z,11.49
2022-09-15T20:11:38.684Z,11.47
2022-09-15T20:14:07.902Z,11.47
2022-09-15T20:16:35.889Z,11.45
2022-09-15T20:19:05.025Z,11.44
2022-09-15T20:21:49.665Z,11.43
2022-09-15T20:24:20.587Z,11.40
2022-09-15T20:26:48.742Z,11.39
2022-09-15T20:29:17.566Z,11.38
2022-09-15T20:31:47.022Z,11.37
2022-09-15T20:34:15.472Z,11.35
2022-09-15T20:36:44.721Z,11.32
2022-09-15T20:39:15.535Z,11.30
2022-09-15T20:41:46.985Z,11.28
2022-09-15T20:44:15.866Z,11.27
2022-09-15T20:46:44.456Z,11.25
2022-09-15T20:49:12.768Z,11.22
2022-09-15T20:51:40.903Z,11.20
2022-09-15T20:54:11.041Z,11.18
2022-09-15T20:56:39.197Z,11.15
2022-09-15T20:59:10.622Z,11.13
2022-09-15T21:01:40.120Z,11.11
2022-09-15T21:04:10.163Z,11.09
2022-09-15T21:06:39.291Z,11.08
2022-09-15T21:09:07.555Z,11.06
2022-09-15T21:11:36.059Z,11.03
2022-09-15T21:14:04.478Z,11.01
2022-09-15T21:16:35.176Z,11.01
2022-09-15T21:19:03.709Z,11.00
2022-09-15T21:21:33.735Z,10.99
2022-09-15T21:24:07.645Z,10.98
2022-09-15T21:27:01.101Z,10.95
2022-09-15T21:29:30.166Z,10.94
2022-09-15T21:31:58.309Z,10.92
2022-09-15T21:34:26.582Z,10.92
2022-09-15T21:36:54.924Z,10.93
2022-09-15T21:39:23.401Z,10.94
2022-09-15T21:41:51.472Z,10.96
2022-09-15T21:44:19.743Z,10.97
2022-09-15T21:46:48.432Z,10.99
2022-09-15T21:49:18.249Z,11.01
2022-09-15T21:51:46.622Z,11.03
2022-09-15T21:54:15.311Z,11.05
2022-09-15T21:56:43.580Z,11.07
2022-09-15T21:59:11.871Z,11.09
2022-09-15T22:01:40.738Z,11.10
2022-09-15T22:04:10.631Z,11.10
2022-09-15T22:06:40.791Z,11.11
2022-09-15T22:09:13.358Z,11.11
2022-09-15T22:11:42.040Z,11.10
2022-09-15T22:14:10.730Z,11.09
2022-09-15T22:16:40.222Z,11.07
2022-09-15T22:19:11.271Z,11.06
2022-09-15T22:21:42.033Z,11.05
2022-09-15T22:24:13.569Z,11.05
2022-09-15T22:26:43.015Z,11.03
2022-09-15T22:29:11.647Z,11.01
2022-09-15T22:31:40.976Z,11.02
2022-09-15T22:34:09.120Z,11.01
2022-09-15T22:36:37.182Z,11.00
2022-09-15T22:39:06.897Z,10.98
2022-09-15T22:41:38.804Z,10.96
2022-09-15T22:44:13.778Z,10.96
2022-09-15T22:46:42.061Z,10.94
2022-09-15T22:49:10.139Z,10.95
2022-09-15T22:51:38.200Z,10.95
2022-09-15T22:54:06.474Z,10.94
2022-09-15T22:56:34.657Z,10.96
2022-09-15T22:59:03.126Z,10.98
2022-09-15T23:01:31.226Z,11.00
2022-09-15T23:04:02.038Z,11.01
2022-09-15T23:06:33.077Z,11.03
2022-09-15T23:09:04.983Z,11.07
2022-09-15T23:11:33.885Z,11.09
2022-09-15T23:14:02.411Z,11.11
2022-09-15T23:16:31.064Z,11.14
2022-09-15T23:19:00.005Z,11.16
2022-09-15T23:21:28.562Z,11.18
2022-09-15T23:23:56.840Z,11.21
2022-09-15T23:26:26.169Z,11.21
2022-09-15T23:28:54.772Z,11.21
2022-09-15T23:31:22.929Z,11.20
2022-09-15T23:33:51.071Z,11.19
2022-09-15T23:36:19.962Z,11.18
2022-09-15T23:38:49.581Z,11.16
2022-09-15T23:41:18.806Z,11.14
2022-09-15T23:43:47.550Z,11.11
2022-09-15T23:46:17.681Z,11.10
2022-09-15T23:48:45.945Z,11.10
2022-09-15T23:51:14.221Z,11.08
2022-09-15T23:53:42.526Z,11.05
2022-09-15T23:56:10.567Z,11.04
2022-09-15T23:58:39.047Z,11.03
